Time;durP1;ratioP1;P1;durP2;ratioP2;P2;SDS_P1;SDS_P2;PMS_P1;PMS_P2;Temp;Humidity;BMP_temperature;BMP_pressure;BME280_temperature;BME280_humidity;BME280_pressure;Samples;Min_cycle;Max_cycle;Signal;HPM_P1;HPM_P2
2023/05/16 00:02:21;;;;;;;;;2.00;1.00;;;;;20.30;34.79;102078.84;6305461;22;45280;-75
2023/05/16 00:04:47;;;;;;;;;2.33;0.67;;;;;20.43;34.67;102088.31;6305137;22;45088;-74
2023/05/16 00:07:13;;;;;;;;;1.00;1.00;;;;;20.32;34.97;102079.56;6305301;22;45293;-75
2023/05/16 00:09:38;;;;;;;;;2.00;1.00;;;;;20.39;34.62;102096.53;6305397;22;45788;-75
2023/05/16 00:12:04;;;;;;;;;1.00;1.00;;;;;20.38;34.38;102094.84;6304673;22;45340;-75
2023/05/16 00:14:29;;;;;;;;;2.33;0.67;;;;;20.36;34.63;102093.31;6305120;22;45252;-75
2023/05/16 00:16:57;;;;;;;;;1.00;1.00;;;;;20.34;34.12;102096.09;6305609;22;45326;-75
2023/05/16 00:19:23;;;;;;;;;2.00;2.00;;;;;20.24;34.00;102084.69;6305380;22;46104;-75
2023/05/16 00:21:48;;;;;;;;;2.00;0.33;;;;;20.27;34.28;102089.72;6305010;22;45161;-75
2023/05/16 00:24:14;;;;;;;;;1.00;1.00;;;;;20.23;33.92;102091.78;6305486;22;45269;-76
2023/05/16 00:26:39;;;;;;;;;2.00;1.00;;;;;20.22;33.80;102089.28;6305064;22;45490;-75
2023/05/16 00:29:05;;;;;;;;;2.00;1.00;;;;;20.16;33.84;102088.03;6304758;22;45624;-75
2023/05/16 00:31:31;;;;;;;;;0.00;0.00;;;;;20.22;34.09;102092.75;6305332;22;45245;-75
2023/05/16 00:33:57;;;;;;;;;2.00;2.00;;;;;20.23;34.04;102096.22;6305440;22;45156;-76
2023/05/16 00:36:22;;;;;;;;;0.00;0.00;;;;;20.12;33.84;102079.53;6305603;22;45186;-76
2023/05/16 00:38:47;;;;;;;;;1.75;1.75;;;;;20.10;33.79;102084.09;6305198;22;46224;-75
2023/05/16 00:41:13;;;;;;;;;0.33;0.33;;;;;20.13;33.69;102091.78;6304945;22;45362;-75
2023/05/16 00:43:39;;;;;;;;;4.67;2.00;;;;;20.15;34.02;102094.25;6304651;22;45244;-76
2023/05/16 00:46:04;;;;;;;;;2.00;2.00;;;;;20.13;33.61;102098.84;6304847;22;45200;-75
2023/05/16 00:48:30;;;;;;;;;2.00;1.67;;;;;20.06;33.71;102090.63;6305064;22;46033;-75
2023/05/16 00:50:56;;;;;;;;;2.00;0.00;;;;;20.09;33.94;102094.78;6305041;22;45292;-75
2023/05/16 00:53:23;;;;;;;;;2.75;1.00;;;;;20.01;33.73;102075.16;6305099;22;45309;-75
2023/05/16 00:55:48;;;;;;;;;1.00;1.00;;;;;20.01;33.89;102083.06;6305040;22;45298;-75
2023/05/16 00:58:15;;;;;;;;;1.00;1.00;;;;;19.98;33.70;102067.53;6304105;22;47035;-75
2023/05/16 01:00:41;;;;;;;;;4.00;0.50;;;;;19.95;33.88;102071.28;6305432;22;45254;-76
2023/05/16 01:03:08;;;;;;;;;2.00;1.00;;;;;19.91;33.71;102066.38;6304825;22;45203;-75
2023/05/16 01:19:12;;;;;;;;;8.50;1.00;;;;;19.56;33.72;102035.03;6305037;22;45407;-74
2023/05/16 01:22:01;;;;;;;;;4.67;0.00;;;;;19.88;33.75;102078.03;6304332;22;46235;-75
2023/05/16 01:24:42;;;;;;;;;0.75;0.75;;;;;19.91;33.95;102092.78;6304576;22;45303;-75
2023/05/16 01:27:10;;;;;;;;;0.75;0.75;;;;;19.81;33.54;102079.56;6304750;22;45323;-75
2023/05/16 01:29:36;;;;;;;;;1.00;1.00;;;;;19.87;33.54;102097.53;6304954;22;45409;-75
2023/05/16 01:32:01;;;;;;;;;3.00;1.75;;;;;19.80;33.76;102086.66;6305126;22;46090;-75
2023/05/16 01:34:27;;;;;;;;;1.00;1.00;;;;;19.75;33.80;102080.13;6304703;22;45303;-74
2023/05/16 01:37:01;;;;;;;;;0.00;0.00;;;;;19.82;33.63;102100.56;6305378;22;45280;-76
2023/05/16 01:39:41;;;;;;;;;1.33;1.00;;;;;19.79;33.65;102100.84;6304863;22;45420;-75
2023/05/16 01:42:13;;;;;;;;;1.00;1.00;;;;;19.78;33.85;102096.50;6304120;22;47030;-74
2023/05/16 01:44:44;;;;;;;;;1.00;1.00;;;;;19.77;33.78;102096.66;6305044;22;45221;-75
2023/05/16 01:47:12;;;;;;;;;0.00;0.00;;;;;19.65;33.81;102086.19;6304884;22;45415;-75
2023/05/16 01:49:57;;;;;;;;;1.00;1.00;;;;;19.59;34.28;102078.81;6304674;22;45380;-75
2023/05/16 01:52:51;;;;;;;;;5.75;0.75;;;;;19.72;33.76;102103.16;6304653;22;46036;-76
2023/05/16 01:55:32;;;;;;;;;1.00;1.00;;;;;19.71;33.95;102103.31;6297951;22;45494;-75
2023/05/16 01:57:58;;;;;;;;;2.00;0.75;;;;;19.71;33.81;102106.78;6304783;22;45157;-75
2023/05/16 02:00:24;;;;;;;;;1.00;1.00;;;;;19.69;33.94;102100.81;6305144;22;45394;-76
2023/05/16 02:02:49;;;;;;;;;0.50;0.00;;;;;19.56;34.09;102087.84;6304279;22;45897;-76
2023/05/16 02:05:14;;;;;;;;;1.75;1.00;;;;;19.61;34.02;102092.72;6304676;22;45275;-76
2023/05/16 02:07:40;;;;;;;;;2.00;0.75;;;;;19.66;34.06;102101.06;6304605;22;45241;-77
2023/05/16 02:10:06;;;;;;;;;1.00;1.00;;;;;19.62;33.56;102104.97;6304171;22;45378;-77
2023/05/16 02:12:31;;;;;;;;;1.00;0.00;;;;;19.51;33.72;102093.53;6304538;22;46277;-76
2023/05/16 02:14:56;;;;;;;;;2.00;0.25;;;;;19.61;33.93;102103.28;6302639;22;45356;-76
2023/05/16 02:17:22;;;;;;;;;0.00;0.00;;;;;19.56;34.14;102097.56;6304819;22;45296;-76
2023/05/16 02:19:47;;;;;;;;;2.00;1.67;;;;;19.59;33.88;102097.28;6304553;22;45435;-76
2023/05/16 02:22:12;;;;;;;;;2.67;0.67;;;;;19.49;34.01;102098.06;6304309;22;47032;-75
2023/05/16 02:24:38;;;;;;;;;1.50;1.50;;;;;19.56;33.89;102108.13;6304615;22;45252;-75
2023/05/16 02:27:03;;;;;;;;;2.00;1.50;;;;;19.47;34.30;102099.19;6304935;22;45177;-75
2023/05/16 02:29:29;;;;;;;;;2.00;2.00;;;;;19.53;34.14;102116.28;6304264;22;45227;-76
2023/05/16 02:31:54;;;;;;;;;2.00;0.00;;;;;19.51;33.86;102124.34;6304237;22;46161;-75
2023/05/16 02:34:20;;;;;;;;;1.00;1.00;;;;;19.14;34.11;102065.81;6304348;22;45284;-76
2023/05/16 02:36:45;;;;;;;;;2.50;0.75;;;;;19.44;33.87;102117.94;6304527;22;45699;-75
2023/05/16 02:39:10;;;;;;;;;0.50;0.50;;;;;19.41;34.06;102119.03;6304306;22;45369;-75
2023/05/16 02:41:36;;;;;;;;;1.00;1.00;;;;;19.39;34.26;102120.94;6304157;22;46770;-75
2023/05/16 02:44:01;;;;;;;;;1.75;0.75;;;;;19.25;34.17;102107.16;6304231;22;45171;-76
2023/05/16 02:46:32;;;;;;;;;1.75;1.00;;;;;19.40;34.29;102130.53;6304890;22;45308;-76
2023/05/16 02:48:57;;;;;;;;;0.33;0.33;;;;;19.36;34.17;102127.31;6304682;22;45242;-75
2023/05/16 02:51:25;;;;;;;;;0.75;0.00;;;;;19.31;34.11;102128.72;6304520;22;45242;-75
2023/05/16 02:53:51;;;;;;;;;0.75;0.75;;;;;19.34;34.21;102134.53;6304251;22;45713;-75
2023/05/16 02:56:17;;;;;;;;;3.00;1.00;;;;;19.33;34.20;102135.53;6304209;22;45170;-75
2023/05/16 02:58:46;;;;;;;;;2.00;1.75;;;;;19.32;34.12;102133.00;6304752;22;45453;-75
2023/05/16 03:01:12;;;;;;;;;1.00;1.00;;;;;19.30;34.44;102141.06;6304144;22;46967;-76
2023/05/16 03:03:37;;;;;;;;;0.67;0.67;;;;;19.22;34.17;102136.44;6304295;22;45299;-75
2023/05/16 03:06:02;;;;;;;;;3.25;1.75;;;;;19.28;33.95;102149.09;6304447;22;45270;-76
2023/05/16 03:08:28;;;;;;;;;2.00;0.75;;;;;19.20;34.02;102137.53;6303977;22;45245;-74
2023/05/16 03:10:53;;;;;;;;;2.00;0.50;;;;;19.11;34.37;102123.25;6303927;22;46302;-75
2023/05/16 03:13:18;;;;;;;;;2.00;2.00;;;;;19.22;34.24;102144.34;6304538;22;45285;-74
2023/05/16 03:15:45;;;;;;;;;1.00;1.00;;;;;19.14;34.11;102139.69;6305132;22;45292;-75
2023/05/16 03:18:10;;;;;;;;;1.33;1.33;;;;;19.10;34.33;102140.88;6303890;22;45598;-75
2023/05/16 03:20:36;;;;;;;;;0.75;0.50;;;;;19.09;34.24;102133.13;6305011;22;45822;-75
2023/05/16 03:23:02;;;;;;;;;1.00;1.00;;;;;19.12;34.35;102144.25;6304822;22;45175;-74
2023/05/16 03:25:28;;;;;;;;;1.00;0.00;;;;;19.12;34.50;102143.41;6305533;22;45380;-76
2023/05/16 03:27:53;;;;;;;;;3.25;1.00;;;;;19.11;34.42;102149.63;6305435;22;45244;-76
2023/05/16 03:30:19;;;;;;;;;0.75;0.75;;;;;19.06;34.51;102147.41;6305452;22;45245;-74
2023/05/16 03:32:45;;;;;;;;;0.00;0.00;;;;;18.98;34.59;102142.75;6304978;22;45379;-75
2023/05/16 03:35:10;;;;;;;;;0.75;0.75;;;;;18.71;34.30;102094.81;6305825;22;45359;-75
2023/05/16 03:37:36;;;;;;;;;1.33;0.33;;;;;18.99;34.52;102147.09;6305254;22;45273;-76
2023/05/16 03:40:04;;;;;;;;;1.00;0.25;;;;;18.97;34.40;102148.97;6303479;22;47282;-76
2023/05/16 03:42:30;;;;;;;;;0.75;0.75;;;;;18.95;34.86;102146.50;6305127;22;45299;-75
2023/05/16 03:44:55;;;;;;;;;2.00;1.00;;;;;18.84;34.75;102134.19;6305148;22;45269;-75
2023/05/16 03:47:21;;;;;;;;;0.75;0.75;;;;;18.82;34.46;102137.91;6305360;22;45180;-75
2023/05/16 03:49:46;;;;;;;;;1.50;0.75;;;;;18.90;34.78;102151.31;6305286;22;45938;-75
2023/05/16 03:52:11;;;;;;;;;0.00;0.00;;;;;18.71;34.87;102130.91;6305051;22;45222;-75
2023/05/16 03:54:37;;;;;;;;;2.75;1.75;;;;;18.79;34.87;102148.72;6305853;22;45180;-75
2023/05/16 03:57:02;;;;;;;;;1.25;1.00;;;;;18.68;34.92;102133.78;6305414;22;45428;-76
2023/05/16 03:59:28;;;;;;;;;2.75;1.50;;;;;18.74;34.81;102149.09;6305581;22;45513;-75
2023/05/16 04:01:53;;;;;;;;;2.50;1.00;;;;;18.80;34.56;102159.16;6305378;22;45399;-75
2023/05/16 04:04:18;;;;;;;;;0.00;0.00;;;;;18.79;34.70;102162.72;6305413;22;45259;-75
2023/05/16 04:06:43;;;;;;;;;4.50;1.75;;;;;18.80;34.76;102167.06;6304528;22;47347;-75
2023/05/16 04:09:09;;;;;;;;;1.50;0.00;;;;;18.77;34.84;102167.31;6305163;22;45326;-75
2023/05/16 04:11:35;;;;;;;;;1.75;0.25;;;;;18.76;34.86;102168.28;6305414;22;45263;-75
2023/05/16 04:14:00;;;;;;;;;3.00;1.00;;;;;18.75;34.77;102171.03;6305257;22;45248;-76
2023/05/16 04:16:26;;;;;;;;;1.00;1.00;;;;;18.66;34.78;102162.09;6304933;22;45333;-75
2023/05/16 04:18:51;;;;;;;;;1.25;0.50;;;;;18.65;34.51;102157.75;6305318;22;46061;-76
2023/05/16 04:21:17;;;;;;;;;1.00;0.00;;;;;18.70;35.03;102163.50;6304423;22;45380;-75
2023/05/16 04:23:42;;;;;;;;;1.00;1.00;;;;;18.67;34.71;102167.22;6305308;22;45357;-75
2023/05/16 04:26:07;;;;;;;;;0.75;0.75;;;;;18.67;34.89;102172.50;6303167;22;45370;-76
2023/05/16 04:28:33;;;;;;;;;0.00;0.00;;;;;18.64;34.51;102171.91;6304754;22;47199;-76
2023/05/16 04:30:58;;;;;;;;;0.00;0.00;;;;;18.60;34.87;102176.59;6305481;22;45311;-75
2023/05/16 04:33:24;;;;;;;;;0.75;0.75;;;;;18.65;34.86;102181.50;6305540;22;45258;-74
2023/05/16 04:35:49;;;;;;;;;1.00;1.00;;;;;18.56;34.95;102173.34;6304528;22;45240;-75
2023/05/16 04:38:15;;;;;;;;;1.00;0.00;;;;;18.55;34.86;102182.25;6304672;22;46145;-76
2023/05/16 04:40:43;;;;;;;;;2.50;1.75;;;;;18.61;34.67;102192.28;6304806;22;45262;-76
2023/05/16 04:43:09;;;;;;;;;2.00;2.00;;;;;18.51;34.88;102178.16;6305081;22;45426;-76
2023/05/16 04:45:34;;;;;;;;;1.25;1.25;;;;;18.56;34.92;102191.81;6305004;22;45264;-75
2023/05/16 04:48:00;;;;;;;;;2.25;1.50;;;;;18.58;35.07;102195.16;6304699;22;46251;-75
2023/05/16 04:50:25;;;;;;;;;1.50;1.50;;;;;18.59;34.90;102190.72;6304351;22;45320;-75
2023/05/16 04:52:51;;;;;;;;;4.25;2.00;;;;;18.50;35.04;102179.94;6305311;22;45273;-75
2023/05/16 04:55:16;;;;;;;;;0.00;0.00;;;;;18.40;35.09;102160.56;6305417;22;45351;-75
2023/05/16 04:57:42;;;;;;;;;1.75;1.25;;;;;18.56;34.76;102191.81;6302947;22;47449;-75
2023/05/16 05:00:10;;;;;;;;;1.25;1.25;;;;;18.58;34.80;102189.88;6305523;22;45341;-75
2023/05/16 05:02:37;;;;;;;;;2.75;2.50;;;;;18.58;34.83;102189.88;6304871;22;45182;-75
2023/05/16 05:05:03;;;;;;;;;2.00;2.00;;;;;18.59;34.65;102188.94;6304368;22;45376;-76
2023/05/16 05:07:28;;;;;;;;;3.00;1.50;;;;;18.45;35.08;102160.22;6304500;22;46869;-76
2023/05/16 05:09:54;;;;;;;;;2.00;1.00;;;;;18.61;35.08;102180.88;6304377;22;45246;-74
2023/05/16 05:12:21;;;;;;;;;1.50;1.50;;;;;18.61;35.08;102183.53;6304898;22;45240;-75
2023/05/16 05:14:46;;;;;;;;;1.75;1.50;;;;;18.62;34.98;102180.78;6304703;22;45450;-75
2023/05/16 05:17:11;;;;;;;;;3.25;1.25;;;;;18.51;35.10;102162.34;6304378;22;45985;-74
2023/05/16 05:19:37;;;;;;;;;3.25;3.00;;;;;18.62;35.06;102179.94;6304131;22;45323;-75
2023/05/16 05:22:02;;;;;;;;;3.25;2.25;;;;;18.59;34.82;102181.03;6304837;22;45343;-75
2023/05/16 05:24:27;;;;;;;;;2.50;1.50;;;;;18.64;35.23;102185.06;6305224;22;45357;-75
2023/05/16 05:26:53;;;;;;;;;2.00;2.00;;;;;18.56;35.24;102180.41;6305091;22;45848;-75
2023/05/16 05:29:18;;;;;;;;;4.25;1.50;;;;;18.66;35.13;102185.81;6304875;22;46530;-75
2023/05/16 05:31:43;;;;;;;;;1.75;1.75;;;;;18.57;35.31;102172.41;6305041;22;45272;-76
2023/05/16 05:34:09;;;;;;;;;3.25;1.50;;;;;18.71;35.01;102188.91;6304344;22;45408;-76
2023/05/16 05:36:34;;;;;;;;;5.00;1.50;;;;;18.74;34.93;102193.91;6302857;22;46911;-75
2023/05/16 05:38:59;;;;;;;;;3.25;0.50;;;;;18.75;35.06;102185.06;6304257;22;45360;-75
2023/05/16 05:41:26;;;;;;;;;2.00;2.00;;;;;18.67;35.14;102171.66;6304755;22;45245;-76
2023/05/16 05:43:51;;;;;;;;;4.25;2.00;;;;;18.71;35.08;102183.63;6304796;22;45232;-76
2023/05/16 05:46:16;;;;;;;;;3.75;1.75;;;;;18.80;35.16;102192.59;6303877;22;46294;-75
2023/05/16 05:48:42;;;;;;;;;2.00;2.00;;;;;18.83;35.25;102208.16;6304573;22;45410;-76
2023/05/16 05:51:07;;;;;;;;;4.25;3.00;;;;;18.69;35.20;102172.34;6305040;22;45258;-75
2023/05/16 05:53:33;;;;;;;;;1.25;1.25;;;;;18.80;35.35;102187.31;6304912;22;45170;-75
2023/05/16 05:55:59;;;;;;;;;4.25;2.50;;;;;18.87;35.32;102200.81;6302983;22;46802;-76
2023/05/16 05:58:24;;;;;;;;;4.75;1.75;;;;;18.90;35.19;102197.94;6304870;22;45393;-77
2023/05/16 06:00:49;;;;;;;;;2.50;2.50;;;;;18.87;35.00;102190.25;6304675;22;45303;-74
2023/05/16 06:03:15;;;;;;;;;5.50;2.25;;;;;18.98;35.12;102211.34;6304713;22;45280;-76
2023/05/16 06:05:40;;;;;;;;;2.75;2.00;;;;;19.04;35.48;102210.00;6304420;22;46234;-74
2023/05/16 06:08:06;;;;;;;;;3.00;2.50;;;;;19.20;35.42;102191.13;6304354;22;45348;-75
2023/05/16 06:10:31;;;;;;;;;4.00;2.50;;;;;19.58;35.38;102191.50;6304510;22;45352;-73
2023/05/16 06:12:56;;;;;;;;;2.00;2.00;;;;;19.91;35.17;102193.16;6304893;22;45387;-74
2023/05/16 06:15:22;;;;;;;;;3.75;1.50;;;;;20.38;34.90;102207.66;6302581;22;46961;-73
2023/05/16 06:17:47;;;;;;;;;4.00;2.00;;;;;20.78;34.80;102208.56;6303997;22;45291;-74
2023/05/16 06:20:13;;;;;;;;;1.00;1.00;;;;;20.96;34.68;102200.78;6304668;22;45360;-75
2023/05/16 06:22:38;;;;;;;;;1.33;1.33;;;;;21.28;34.49;102190.06;6304769;22;45236;-74
2023/05/16 06:25:04;;;;;;;;;3.00;1.50;;;;;21.75;33.66;102214.88;6303762;22;45276;-76
2023/05/16 06:27:29;;;;;;;;;1.33;1.00;;;;;21.92;33.39;102208.00;6285589;22;45858;-76
2023/05/16 06:29:55;;;;;;;;;7.33;2.00;;;;;21.94;33.72;102203.38;6302808;22;45449;-76
2023/05/16 06:32:20;;;;;;;;;3.33;0.67;;;;;22.07;33.32;102212.81;6301911;22;45462;-74
2023/05/16 06:34:46;;;;;;;;;4.00;2.00;;;;;22.15;33.36;102212.06;6301966;22;52598;-75
2023/05/16 06:37:11;;;;;;;;;6.67;2.00;;;;;22.23;33.83;102214.81;6302599;22;45276;-74
2023/05/16 06:39:36;;;;;;;;;3.00;3.00;;;;;22.22;32.97;102210.53;6293122;22;45294;-74
2023/05/16 06:42:02;;;;;;;;;4.00;2.67;;;;;22.07;32.95;102207.50;6287533;22;45927;-74
2023/05/16 06:44:27;;;;;;;;;1.00;1.00;;;;;21.96;33.66;102208.56;6300097;22;46855;-74
2023/05/16 06:46:52;;;;;;;;;1.00;1.00;;;;;21.94;33.83;102215.78;6299418;22;45854;-73
2023/05/16 06:49:18;;;;;;;;;3.67;2.33;;;;;21.58;33.73;102174.06;6298226;22;54432;-75
2023/05/16 06:51:43;;;;;;;;;3.00;1.67;;;;;21.83;33.66;102216.81;6301000;22;45434;-76
2023/05/16 06:54:08;;;;;;;;;1.33;1.00;;;;;21.77;33.42;102223.50;6299318;22;47049;-75
2023/05/16 06:56:34;;;;;;;;;3.00;2.33;;;;;21.38;33.65;102163.56;6300357;22;45496;-75
2023/05/16 06:59:00;;;;;;;;;2.33;1.00;;;;;21.48;33.89;102180.25;6300474;22;46093;-74
2023/05/16 07:01:26;;;;;;;;;1.33;1.00;;;;;21.67;33.69;102220.91;6299642;22;45657;-75
2023/05/16 07:03:51;;;;;;;;;1.00;1.00;;;;;21.53;33.92;102206.28;6300540;22;46142;-75
2023/05/16 07:06:16;;;;;;;;;2.00;1.00;;;;;21.51;33.92;102209.09;6300217;22;45378;-75
2023/05/16 07:08:42;;;;;;;;;2.00;1.00;;;;;21.46;33.63;102198.09;6300987;22;45308;-75
2023/05/16 07:11:07;;;;;;;;;3.67;1.00;;;;;21.43;33.72;102208.97;6300345;22;45384;-75
2023/05/16 07:13:32;;;;;;;;;1.00;1.00;;;;;21.55;33.86;102217.56;6300051;22;45508;-75
2023/05/16 07:15:58;;;;;;;;;2.00;1.00;;;;;21.54;33.73;102217.72;6299558;22;47730;-74
2023/05/16 07:18:23;;;;;;;;;0.00;0.00;;;;;21.53;33.62;102222.19;6300649;22;45359;-75
2023/05/16 07:20:48;;;;;;;;;0.00;0.00;;;;;21.51;33.43;102224.97;6298129;22;51388;-75
2023/05/16 07:23:13;;;;;;;;;1.00;1.00;;;;;21.53;33.47;102227.47;6298374;22;47205;-74
2023/05/16 07:25:39;;;;;;;;;2.00;0.33;;;;;21.44;33.63;102217.75;6300845;22;45344;-75
2023/05/16 07:28:04;;;;;;;;;0.33;0.33;;;;;21.44;33.21;102225.69;6298840;22;45274;-75
2023/05/16 07:30:30;;;;;;;;;1.33;1.00;;;;;21.50;33.00;102241.84;6299758;22;45213;-76
2023/05/16 07:32:55;;;;;;;;;0.33;0.33;;;;;21.49;33.29;102242.81;6299716;22;46409;-75
2023/05/16 07:35:20;;;;;;;;;0.00;0.00;;;;;21.40;33.09;102218.03;6300327;22;45236;-75
2023/05/16 07:37:46;;;;;;;;;0.00;0.00;;;;;21.54;32.61;102231.81;6300607;22;45309;-76
2023/05/16 07:40:13;;;;;;;;;1.33;0.00;;;;;21.47;31.64;102220.94;6301325;22;45402;-75
2023/05/16 07:42:38;;;;;;;;;0.00;0.00;;;;;21.45;31.85;102220.25;6299913;22;47062;-75
2023/05/16 07:45:05;;;;;;;;;0.00;0.00;;;;;21.56;31.66;102242.25;6299589;22;45334;-75
2023/05/16 07:47:31;;;;;;;;;0.00;0.00;;;;;21.58;31.42;102242.94;6299557;22;45308;-74
2023/05/16 07:49:56;;;;;;;;;0.67;0.00;;;;;21.55;30.85;102237.91;6300322;22;45280;-75
2023/05/16 07:52:21;;;;;;;;;0.00;0.00;;;;;21.62;30.52;102245.16;6298151;22;48050;-75
2023/05/16 07:54:47;;;;;;;;;0.67;0.67;;;;;21.61;30.49;102245.31;6299871;22;45241;-75
2023/05/16 07:57:14;;;;;;;;;0.00;0.00;;;;;21.48;30.65;102227.06;6300455;22;45293;-75
2023/05/16 07:59:39;;;;;;;;;1.00;0.00;;;;;21.61;30.28;102243.50;6298345;22;45225;-75
2023/05/16 08:02:05;;;;;;;;;0.00;0.00;;;;;21.54;30.05;102229.16;6300199;22;46317;-75
2023/05/16 08:04:30;;;;;;;;;0.00;0.00;;;;;21.62;30.56;102231.91;6300991;22;45268;-75
2023/05/16 08:06:56;;;;;;;;;1.00;0.00;;;;;21.67;29.90;102249.19;6301189;22;45295;-75
2023/05/16 08:09:21;;;;;;;;;0.00;0.00;;;;;21.65;30.27;102248.50;6301316;22;45410;-75
2023/05/16 08:11:46;;;;;;;;;0.00;0.00;;;;;21.52;30.04;102221.34;6300140;22;46141;-75
2023/05/16 08:14:12;;;;;;;;;0.00;0.00;;;;;21.66;29.80;102235.13;6301277;22;45288;-75
2023/05/16 08:16:37;;;;;;;;;2.00;0.00;;;;;21.70;29.88;102247.06;6301598;22;45375;-75
2023/05/16 08:19:02;;;;;;;;;0.00;0.00;;;;;21.63;30.47;102230.09;6300214;22;45285;-75
2023/05/16 08:21:28;;;;;;;;;0.00;0.00;;;;;21.76;30.09;102244.84;6300334;22;46943;-75
2023/05/16 08:23:54;;;;;;;;;1.67;0.00;;;;;21.76;29.91;102255.44;6300942;22;45393;-75
2023/05/16 08:26:20;;;;;;;;;0.33;0.33;;;;;21.59;30.01;102224.28;6300350;22;45385;-76
2023/05/16 08:28:46;;;;;;;;;1.00;0.00;;;;;21.77;29.68;102257.13;6300836;22;45493;-75
2023/05/16 08:31:12;;;;;;;;;0.00;0.00;;;;;21.68;30.33;102238.44;6299022;22;46945;-75
2023/05/16 08:33:37;;;;;;;;;0.00;0.00;;;;;;;;6300987;22;45292;-75
2023/05/16 08:36:02;;;;;;;;;0.00;0.00;;;;;21.73;29.66;102238.84;6301537;22;45384;-75
2023/05/16 08:38:28;;;;;;;;;0.00;0.00;;;;;21.80;29.49;102246.22;6301328;22;45331;-73
2023/05/16 08:40:53;;;;;;;;;0.00;0.00;;;;;21.78;29.72;102229.66;6301288;22;45885;-75
2023/05/16 08:43:19;;;;;;;;;0.00;0.00;;;;;21.76;29.84;102231.59;6300275;22;45384;-76
2023/05/16 08:45:44;;;;;;;;;0.00;0.00;;;;;21.88;29.46;102242.91;6300628;22;45911;-76
2023/05/16 08:48:10;;;;;;;;;0.00;0.00;;;;;21.88;29.17;102248.19;6301598;22;45289;-75
2023/05/16 08:50:36;;;;;;;;;3.33;0.00;;;;;21.81;29.14;102227.53;6300516;22;46895;-74
2023/05/16 08:53:07;;;;;;;;;0.00;0.00;;;;;21.87;28.86;102244.69;6301177;22;45226;-73
2023/05/16 08:55:35;;;;;;;;;0.00;0.00;;;;;21.82;29.12;102242.47;6300862;22;45275;-75
2023/05/16 08:58:01;;;;;;;;;0.00;0.00;;;;;21.74;28.99;102224.63;6301048;22;45221;-75
2023/05/16 09:00:27;;;;;;;;;0.00;0.00;;;;;21.82;28.79;102231.03;6300999;22;45356;-75
2023/05/16 09:02:52;;;;;;;;;0.00;0.00;;;;;21.90;28.80;102241.78;6301392;22;45793;-74
2023/05/16 09:05:18;;;;;;;;;0.00;0.00;;;;;21.90;28.83;102239.13;6301341;22;45320;-75
2023/05/16 09:07:44;;;;;;;;;0.00;0.00;;;;;21.91;29.32;102232.00;6301186;22;45475;-75
2023/05/16 09:10:11;;;;;;;;;0.00;0.00;;;;;21.93;29.07;102230.03;6299089;22;46816;-75
2023/05/16 09:12:38;;;;;;;;;1.00;0.00;;;;;21.95;28.89;102230.72;6300430;22;45361;-75
2023/05/16 09:15:05;;;;;;;;;1.00;0.00;;;;;21.94;28.76;102237.00;6301584;22;45417;-75
2023/05/16 09:17:36;;;;;;;;;0.00;0.00;;;;;21.91;29.18;102222.22;6300743;22;45302;-75
2023/05/16 09:20:11;;;;;;;;;0.00;0.00;;;;;21.88;29.03;102219.88;6300940;22;47268;-75
2023/05/16 09:22:37;;;;;;;;;0.00;0.00;;;;;22.03;28.98;102224.69;6300471;22;45290;-75
2023/05/16 09:25:03;;;;;;;;;1.00;0.00;;;;;22.06;29.01;102219.94;6300443;22;45365;-75
2023/05/16 09:27:30;;;;;;;;;1.00;0.00;;;;;22.07;29.10;102231.34;6300665;22;45393;-75
2023/05/16 09:29:57;;;;;;;;;0.00;0.00;;;;;22.06;29.34;102230.56;6300447;22;46965;-73
2023/05/16 09:32:23;;;;;;;;;0.00;0.00;;;;;22.05;28.71;102238.63;6300909;22;45293;-76
2023/05/16 09:34:50;;;;;;;;;0.67;0.67;;;;;22.11;28.69;102239.88;6301453;22;45876;-75
2023/05/16 09:37:16;;;;;;;;;1.00;0.00;;;;;21.99;28.81;102231.28;6301483;22;45385;-76
2023/05/16 09:39:50;;;;;;;;;2.00;0.00;;;;;22.10;28.49;102244.31;6300828;22;45381;-75
2023/05/16 09:42:17;;;;;;;;;2.00;1.00;;;;;22.03;28.56;102227.34;6300712;22;45346;-75
2023/05/16 09:44:50;;;;;;;;;0.00;0.00;;;;;22.15;28.79;102238.59;6301653;22;45263;-74
2023/05/16 09:47:17;;;;;;;;;0.00;0.00;;;;;22.11;27.86;102248.66;6299014;22;45482;-75
2023/05/16 09:49:45;;;;;;;;;0.00;0.00;;;;;21.99;27.99;102239.22;6300798;22;46141;-75
2023/05/16 09:52:11;;;;;;;;;1.00;0.00;;;;;22.03;27.95;102243.25;6300901;22;45226;-75
2023/05/16 09:54:36;;;;;;;;;0.00;0.00;;;;;22.06;27.90;102243.81;6300585;22;45300;-74
2023/05/16 09:57:02;;;;;;;;;0.00;0.00;;;;;22.08;27.86;102246.28;6301318;22;45276;-75
2023/05/16 09:59:28;;;;;;;;;0.00;0.00;;;;;21.90;28.19;102225.88;6300521;22;46781;-75
2023/05/16 10:01:58;;;;;;;;;0.00;0.00;;;;;22.12;28.03;102249.50;6300720;22;45335;-75
2023/05/16 10:04:23;;;;;;;;;0.33;0.33;;;;;22.07;27.87;102234.00;6299801;22;45431;-75
2023/05/16 10:06:51;;;;;;;;;0.00;0.00;;;;;22.13;27.59;102237.91;6300421;22;45610;-73
2023/05/16 10:09:17;;;;;;;;;0.33;0.00;;;;;22.03;28.15;102228.19;6296999;22;46417;-73
2023/05/16 10:11:45;;;;;;;;;0.00;0.00;;;;;22.06;28.03;102222.59;6300570;22;45374;-73
2023/05/16 10:14:11;;;;;;;;;0.00;0.00;;;;;22.21;28.08;102240.66;6301046;22;45407;-73
2023/05/16 10:16:41;;;;;;;;;0.00;0.00;;;;;22.29;28.65;102243.41;6300589;22;45524;-73
2023/05/16 10:19:07;;;;;;;;;0.00;0.00;;;;;22.34;28.24;102240.31;6299433;22;45996;-73
2023/05/16 10:21:32;;;;;;;;;0.00;0.00;;;;;22.38;29.19;102235.53;6299470;22;45774;-73
2023/05/16 10:24:04;;;;;;;;;0.00;0.00;;;;;22.42;29.24;102223.66;6299854;22;45660;-73
2023/05/16 10:26:31;;;;;;;;;0.00;0.00;;;;;22.49;28.92;102239.78;6299854;22;45473;-73
2023/05/16 10:28:58;;;;;;;;;0.00;0.00;;;;;22.46;29.24;102227.66;6300312;22;45400;-72
2023/05/16 10:31:23;;;;;;;;;0.00;0.00;;;;;22.54;29.13;102232.22;6300122;22;45467;-71
2023/05/16 10:33:49;;;;;;;;;2.00;0.00;;;;;22.54;29.10;102234.88;6299521;22;45376;-73
2023/05/16 10:36:15;;;;;;;;;0.00;0.00;;;;;22.62;29.06;102242.09;6300646;22;45385;-72
2023/05/16 10:38:43;;;;;;;;;0.00;0.00;;;;;22.55;29.61;102223.28;6299804;22;46203;-72
2023/05/16 10:41:09;;;;;;;;;0.33;0.00;;;;;22.66;29.02;102234.66;6300161;22;45340;-73
2023/05/16 10:43:35;;;;;;;;;1.00;0.00;;;;;22.68;29.52;102230.03;6300098;22;45285;-73
2023/05/16 10:46:08;;;;;;;;;0.00;0.00;;;;;22.70;29.26;102241.38;6299736;22;45609;-73
2023/05/16 10:48:41;;;;;;;;;0.00;0.00;;;;;22.70;29.07;102236.06;6300371;22;45646;-73
2023/05/16 10:51:21;;;;;;;;;0.67;0.00;;;;;22.69;28.75;102235.19;6300595;22;45460;-73
2023/05/16 10:53:47;;;;;;;;;0.00;0.00;;;;;22.60;28.94;102228.13;6300926;22;45316;-74
2023/05/16 10:56:12;;;;;;;;;0.67;0.00;;;;;22.38;28.54;102183.31;6296949;22;45406;-74
2023/05/16 10:58:37;;;;;;;;;0.00;0.00;;;;;22.71;28.52;102241.22;6304174;22;45379;-74
2023/05/16 11:01:21;;;;;;;;;0.00;0.00;;;;;22.69;28.88;102232.53;6303680;22;45259;-73
2023/05/16 11:03:56;;;;;;;;;0.00;0.00;;;;;22.71;28.45;102246.53;6302960;22;45563;-72
2023/05/16 11:06:32;;;;;;;;;2.00;0.00;;;;;22.72;28.71;102244.69;6303717;22;45256;-73
2023/05/16 11:09:05;;;;;;;;;0.00;0.00;;;;;22.72;28.46;102237.56;6303691;22;47001;-72
2023/05/16 11:11:54;;;;;;;;;0.00;0.00;;;;;22.73;28.82;102239.25;6303877;22;45294;-72
2023/05/16 11:14:30;;;;;;;;;1.33;0.00;;;;;22.73;28.60;102244.56;6304199;22;45271;-72
2023/05/16 11:17:19;;;;;;;;;0.00;0.00;;;;;22.73;28.51;102241.06;6303999;22;45533;-72
2023/05/16 11:19:54;;;;;;;;;0.00;0.00;;;;;22.72;28.66;102242.03;6304189;22;46485;-73
2023/05/16 11:22:23;;;;;;;;;0.00;0.00;;;;;22.61;28.43;102221.88;6303358;22;45333;-72
2023/05/16 11:24:54;;;;;;;;;0.33;0.00;;;;;22.71;28.76;102235.09;6304122;22;45247;-72
2023/05/16 11:27:24;;;;;;;;;0.00;0.00;;;;;22.62;28.76;102227.00;6303924;22;45231;-72
2023/05/16 11:29:50;;;;;;;;;0.00;0.00;;;;;22.72;28.90;102226.97;6303603;22;46277;-72
2023/05/16 11:32:19;;;;;;;;;0.00;0.00;;;;;22.73;28.90;102233.09;6303748;22;45234;-72
2023/05/16 11:34:46;;;;;;;;;0.00;0.00;;;;;22.71;28.90;102229.78;6303407;22;45257;-72
2023/05/16 11:37:11;;;;;;;;;1.33;0.33;;;;;22.72;28.59;102231.44;6304744;22;45307;-72
2023/05/16 11:39:37;;;;;;;;;1.00;0.00;;;;;22.71;28.44;102246.53;6305472;22;46017;-72